Time;durP1;ratioP1;P1;durP2;ratioP2;P2;SDS_P1;SDS_P2;PMS_P1;PMS_P2;Temp;Humidity;BMP_temperature;BMP_pressure;BME280_temperature;BME280_humidity;BME280_pressure;Samples;Min_cycle;Max_cycle;Signal;HPM_P1;HPM_P2
2023/06/18 00:02:11;;;;;;;;;;;17.00;75.30;;;;;;4980836;28;20357;-73
2023/06/18 00:04:38;;;;;;;;;;;16.90;76.00;;;;;;4975147;28;20381;-73
2023/06/18 00:07:05;;;;;;;;;;;16.80;75.80;;;;;;4982265;28;20028;-73
2023/06/18 00:09:31;;;;;;;;;;;16.80;76.80;;;;;;4981398;28;19933;-73
2023/06/18 00:11:58;;;;;;;;;;;16.80;76.20;;;;;;4982070;28;20492;-73
2023/06/18 00:14:25;;;;;;;;;;;16.80;77.40;;;;;;4980828;28;20003;-73
2023/06/18 00:16:52;;;;;;;;;;;16.80;76.90;;;;;;4981368;28;19933;-73
2023/06/18 00:19:19;;;;;;;;;;;16.80;77.00;;;;;;4981739;28;19934;-73
2023/06/18 00:21:47;;;;;;;;;;;16.80;77.20;;;;;;4979176;28;20017;-73
2023/06/18 00:24:14;;;;;;;;;;;16.80;77.20;;;;;;4981897;28;20449;-73
2023/06/18 00:26:41;;;;;;;;;;;16.70;77.60;;;;;;4978573;28;20328;-73
2023/06/18 00:29:08;;;;;;;;;;;16.70;78.40;;;;;;4982249;28;19940;-73
2023/06/18 00:31:35;;;;;;;;;;;16.60;78.60;;;;;;4981169;28;20363;-73
2023/06/18 00:34:06;;;;;;;;;;;16.60;78.90;;;;;;4971085;28;19981;-73
2023/06/18 00:36:33;;;;;;;;;;;16.50;79.20;;;;;;4982587;28;19934;-73
2023/06/18 00:39:03;;;;;;;;;;;16.50;79.90;;;;;;4964541;28;20013;-73
2023/06/18 00:41:30;;;;;;;;;;;16.40;79.60;;;;;;4980162;28;19941;-73
2023/06/18 00:43:57;;;;;;;;;;;16.40;79.90;;;;;;4979203;28;21603;-73
2023/06/18 00:46:25;;;;;;;;;;;16.30;79.70;;;;;;4982300;28;20033;-73
2023/06/18 00:48:53;;;;;;;;;;;16.30;80.50;;;;;;4974935;28;20239;-73
2023/06/18 00:51:22;;;;;;;;;;;16.20;80.50;;;;;;4975367;28;19976;-73
2023/06/18 00:53:49;;;;;;;;;;;16.20;81.00;;;;;;4982735;28;20067;-73
2023/06/18 00:56:17;;;;;;;;;;;16.10;80.90;;;;;;4985452;28;20055;-73
2023/06/18 00:58:47;;;;;;;;;;;16.20;81.10;;;;;;4976445;28;20377;-74
2023/06/18 01:01:14;;;;;;;;;;;16.10;82.00;;;;;;4983054;28;20060;-73
2023/06/18 01:03:41;;;;;;;;;;;16.10;81.50;;;;;;4984151;28;19933;-73
2023/06/18 01:06:11;;;;;;;;;;;16.00;80.90;;;;;;4967658;28;19940;-73
2023/06/18 01:08:40;;;;;;;;;;;16.00;81.50;;;;;;4967420;28;20787;-73
2023/06/18 01:11:08;;;;;;;;;;;16.00;81.80;;;;;;4984773;28;19934;-73
2023/06/18 01:13:40;;;;;;;;;;;15.90;81.50;;;;;;4982819;28;20162;-73
2023/06/18 01:16:08;;;;;;;;;;;15.90;82.90;;;;;;4966852;28;19980;-73
2023/06/18 01:18:39;;;;;;;;;;;15.80;82.20;;;;;;4985026;28;19986;-73
2023/06/18 01:21:09;;;;;;;;;;;15.70;83.10;;;;;;4974711;28;19940;-73
2023/06/18 01:23:49;;;;;;;;;;;15.70;83.50;;;;;;4984907;28;19988;-73
2023/06/18 01:26:21;;;;;;;;;;;15.60;84.10;;;;;;4984453;28;20185;-73
2023/06/18 01:28:51;;;;;;;;;;;15.60;84.10;;;;;;4984997;28;19988;-73
2023/06/18 01:31:21;;;;;;;;;;;15.50;84.20;;;;;;4980610;28;20291;-73
2023/06/18 01:33:53;;;;;;;;;;;15.50;84.30;;;;;;4973613;28;20021;-73
2023/06/18 01:36:26;;;;;;;;;;;15.40;84.50;;;;;;4971003;28;19933;-73
2023/06/18 01:38:56;;;;;;;;;;;15.40;84.90;;;;;;4973468;28;19934;-73
2023/06/18 01:41:26;;;;;;;;;;;15.40;85.40;;;;;;4982667;28;19940;-73
2023/06/18 01:43:57;;;;;;;;;;;15.30;85.20;;;;;;4965662;28;20028;-73
2023/06/18 01:46:25;;;;;;;;;;;15.20;85.00;;;;;;4976688;28;19984;-73
2023/06/18 01:48:56;;;;;;;;;;;15.20;86.10;;;;;;4983354;28;19955;-73
2023/06/18 01:51:25;;;;;;;;;;;15.20;87.00;;;;;;4984296;28;19938;-72
2023/06/18 01:53:54;;;;;;;;;;;15.10;87.60;;;;;;4984330;28;20028;-73
2023/06/18 01:56:22;;;;;;;;;;;15.10;86.70;;;;;;4983266;28;19973;-72
2023/06/18 01:58:50;;;;;;;;;;;15.00;87.50;;;;;;4972659;28;19934;-72
2023/06/18 02:01:17;;;;;;;;;;;15.00;86.90;;;;;;4983843;28;20625;-72
2023/06/18 02:03:43;;;;;;;;;;;14.90;86.90;;;;;;4965015;28;19940;-73
2023/06/18 02:06:10;;;;;;;;;;;14.90;88.30;;;;;;4982704;28;19933;-74
2023/06/18 02:08:37;;;;;;;;;;;14.90;87.60;;;;;;4982133;28;20073;-73
2023/06/18 02:11:04;;;;;;;;;;;14.80;87.40;;;;;;4981417;28;19969;-72
2023/06/18 02:13:30;;;;;;;;;;;14.80;87.90;;;;;;4973792;28;19941;-73
2023/06/18 02:15:57;;;;;;;;;;;14.70;87.30;;;;;;4983816;28;20072;-72
2023/06/18 02:18:24;;;;;;;;;;;14.60;87.30;;;;;;4972629;28;19938;-73
2023/06/18 02:20:51;;;;;;;;;;;14.60;88.40;;;;;;4966112;28;20021;-72
2023/06/18 02:23:18;;;;;;;;;;;14.60;88.50;;;;;;4973735;28;19934;-73
2023/06/18 02:25:45;;;;;;;;;;;14.50;87.80;;;;;;4982759;28;20434;-73
2023/06/18 02:28:12;;;;;;;;;;;14.50;88.60;;;;;;4982658;28;20383;-72
2023/06/18 02:30:38;;;;;;;;;;;14.40;89.50;;;;;;4982798;28;19934;-73
2023/06/18 02:33:10;;;;;;;;;;;14.40;88.90;;;;;;4983368;28;19973;-72
2023/06/18 02:35:37;;;;;;;;;;;14.30;88.70;;;;;;4979896;28;20110;-73
2023/06/18 02:38:04;;;;;;;;;;;14.30;89.20;;;;;;4980208;28;20524;-73
2023/06/18 02:40:31;;;;;;;;;;;14.30;89.90;;;;;;4965150;28;19956;-72
2023/06/18 02:42:58;;;;;;;;;;;14.20;90.10;;;;;;4974705;28;19972;-73
2023/06/18 02:45:28;;;;;;;;;;;14.20;89.80;;;;;;4983625;28;19934;-73
2023/06/18 02:47:55;;;;;;;;;;;14.10;89.00;;;;;;4981154;28;19969;-73
2023/06/18 02:50:22;;;;;;;;;;;14.00;88.80;;;;;;4974640;28;19933;-72
2023/06/18 02:52:49;;;;;;;;;;;14.00;89.00;;;;;;4964466;28;19941;-72
2023/06/18 02:55:16;;;;;;;;;;;13.90;89.20;;;;;;4982368;28;20357;-73
2023/06/18 02:57:43;;;;;;;;;;;13.90;90.10;;;;;;4972829;28;20461;-73
2023/06/18 03:00:11;;;;;;;;;;;13.90;89.90;;;;;;4959508;28;20421;-73
2023/06/18 03:02:39;;;;;;;;;;;13.90;90.40;;;;;;4972169;28;19974;-73
2023/06/18 03:05:06;;;;;;;;;;;13.90;90.50;;;;;;4982177;28;20049;-73
2023/06/18 03:07:33;;;;;;;;;;;13.90;91.20;;;;;;4982447;28;19941;-72
2023/06/18 03:10:00;;;;;;;;;;;13.90;91.30;;;;;;4970979;28;19996;-73
2023/06/18 03:12:28;;;;;;;;;;;13.90;91.50;;;;;;4982947;28;20035;-73
2023/06/18 03:14:55;;;;;;;;;;;13.90;91.90;;;;;;4982758;28;19934;-73
2023/06/18 03:17:22;;;;;;;;;;;13.90;91.20;;;;;;4982545;28;20049;-73
2023/06/18 03:19:49;;;;;;;;;;;13.80;91.00;;;;;;4982122;28;20366;-73
2023/06/18 03:22:16;;;;;;;;;;;13.80;91.70;;;;;;4984284;28;19933;-73
2023/06/18 03:24:43;;;;;;;;;;;13.80;91.90;;;;;;4983084;28;20013;-73
2023/06/18 03:27:09;;;;;;;;;;;13.90;92.10;;;;;;4983917;28;19933;-74
2023/06/18 03:29:36;;;;;;;;;;;13.80;92.20;;;;;;4982414;28;20036;-74
2023/06/18 03:32:03;;;;;;;;;;;13.80;92.40;;;;;;4973014;28;20030;-73
2023/06/18 03:34:33;;;;;;;;;;;13.80;92.30;;;;;;4966830;28;19934;-73
2023/06/18 03:37:00;;;;;;;;;;;13.80;92.50;;;;;;4965905;28;19941;-73
2023/06/18 03:39:27;;;;;;;;;;;13.80;92.30;;;;;;4972151;28;20030;-73
2023/06/18 03:41:55;;;;;;;;;;;13.80;91.90;;;;;;4982550;28;20635;-74
2023/06/18 03:44:22;;;;;;;;;;;13.80;91.90;;;;;;4979883;28;20619;-73
2023/06/18 03:46:49;;;;;;;;;;;13.80;91.60;;;;;;4982489;28;19934;-72
2023/06/18 03:49:16;;;;;;;;;;;13.80;91.70;;;;;;4958020;28;20727;-73
2023/06/18 03:51:43;;;;;;;;;;;13.80;91.70;;;;;;4976674;28;19941;-73
2023/06/18 03:54:10;;;;;;;;;;;13.80;91.60;;;;;;4976723;28;19929;-73
2023/06/18 03:56:37;;;;;;;;;;;13.90;91.80;;;;;;4957777;28;19933;-72
2023/06/18 03:59:04;;;;;;;;;;;13.90;92.30;;;;;;4967952;28;19934;-73
2023/06/18 04:01:31;;;;;;;;;;;13.90;91.00;;;;;;4976086;28;19934;-73
2023/06/18 04:03:57;;;;;;;;;;;13.90;90.80;;;;;;4964653;28;20011;-73
2023/06/18 04:06:24;;;;;;;;;;;13.90;91.00;;;;;;4967474;28;20015;-72
2023/06/18 04:08:51;;;;;;;;;;;13.90;91.70;;;;;;4973862;28;20032;-72
2023/06/18 04:11:18;;;;;;;;;;;13.90;92.20;;;;;;4975862;28;19984;-72
2023/06/18 04:13:44;;;;;;;;;;;14.00;91.40;;;;;;4977814;28;19949;-73
2023/06/18 04:16:11;;;;;;;;;;;14.00;91.30;;;;;;4972547;28;19980;-73
2023/06/18 04:18:38;;;;;;;;;;;14.00;91.70;;;;;;4982694;28;20595;-73
2023/06/18 04:21:05;;;;;;;;;;;14.10;91.80;;;;;;4985003;28;20107;-73
2023/06/18 04:23:31;;;;;;;;;;;14.10;92.10;;;;;;4975341;28;19934;-73
2023/06/18 04:25:58;;;;;;;;;;;14.10;92.60;;;;;;4984328;28;19933;-73
2023/06/18 04:28:25;;;;;;;;;;;14.20;92.80;;;;;;4978333;28;19933;-73
2023/06/18 04:30:52;;;;;;;;;;;14.20;93.10;;;;;;4974607;28;20068;-73
2023/06/18 04:33:18;;;;;;;;;;;14.30;93.30;;;;;;4983180;28;19933;-72
2023/06/18 04:35:46;;;;;;;;;;;14.40;93.60;;;;;;4987195;28;20035;-73
2023/06/18 04:38:13;;;;;;;;;;;14.40;92.60;;;;;;4968828;28;20052;-74
2023/06/18 04:40:39;;;;;;;;;;;14.50;92.10;;;;;;4968636;28;19941;-73
2023/06/18 04:43:06;;;;;;;;;;;14.50;91.60;;;;;;4973087;28;20033;-73
2023/06/18 04:45:33;;;;;;;;;;;14.60;91.30;;;;;;4985242;28;20355;-73
2023/06/18 04:48:02;;;;;;;;;;;14.60;91.80;;;;;;4974373;28;20357;-73
2023/06/18 04:50:29;;;;;;;;;;;14.70;90.90;;;;;;4985269;28;19973;-74
2023/06/18 04:52:56;;;;;;;;;;;14.70;90.60;;;;;;4975542;28;19961;-73
2023/06/18 04:55:23;;;;;;;;;;;14.80;91.20;;;;;;4974527;28;19996;-73
2023/06/18 04:57:50;;;;;;;;;;;14.80;91.30;;;;;;4986085;28;19957;-73
2023/06/18 05:00:20;;;;;;;;;;;14.80;91.00;;;;;;4974232;28;19941;-73
2023/06/18 05:02:47;;;;;;;;;;;14.90;90.50;;;;;;4986052;28;19992;-73
2023/06/18 05:05:17;;;;;;;;;;;14.90;89.90;;;;;;4985055;28;20067;-73
2023/06/18 05:07:44;;;;;;;;;;;15.00;90.30;;;;;;4982325;28;19973;-73
2023/06/18 05:10:11;;;;;;;;;;;15.00;90.60;;;;;;4984537;28;19934;-73
2023/06/18 05:12:38;;;;;;;;;;;15.10;90.70;;;;;;4984803;28;20905;-73
2023/06/18 05:15:06;;;;;;;;;;;15.10;90.90;;;;;;4984436;28;19933;-73
2023/06/18 05:17:33;;;;;;;;;;;15.20;90.20;;;;;;4983304;28;19934;-73
2023/06/18 05:20:01;;;;;;;;;;;15.30;90.80;;;;;;4983428;28;20306;-73
2023/06/18 05:22:28;;;;;;;;;;;15.30;90.10;;;;;;4982706;28;19933;-73
2023/06/18 05:24:55;;;;;;;;;;;15.40;89.40;;;;;;4981905;28;20027;-73
2023/06/18 05:27:21;;;;;;;;;;;15.50;89.90;;;;;;4983095;28;20410;-73
2023/06/18 05:29:48;;;;;;;;;;;15.50;90.00;;;;;;4982988;28;19992;-73
2023/06/18 05:32:15;;;;;;;;;;;15.60;89.20;;;;;;4984547;28;19941;-73
2023/06/18 05:34:42;;;;;;;;;;;15.70;89.70;;;;;;4967721;28;19972;-73
2023/06/18 05:37:09;;;;;;;;;;;15.80;89.80;;;;;;4976213;28;19933;-72
2023/06/18 05:39:36;;;;;;;;;;;15.90;89.10;;;;;;4987465;28;20021;-71
2023/06/18 05:42:03;;;;;;;;;;;16.00;89.30;;;;;;4986864;28;20585;-71
2023/06/18 05:44:29;;;;;;;;;;;16.10;89.00;;;;;;4985753;28;20389;-71
2023/06/18 05:46:56;;;;;;;;;;;16.20;89.10;;;;;;4986688;28;20044;-70
2023/06/18 05:49:23;;;;;;;;;;;16.30;88.40;;;;;;4986591;28;19949;-71
2023/06/18 05:51:50;;;;;;;;;;;16.30;88.90;;;;;;4966930;28;19940;-70
2023/06/18 05:54:17;;;;;;;;;;;16.40;88.10;;;;;;4986271;28;20032;-71
2023/06/18 05:56:44;;;;;;;;;;;16.50;87.40;;;;;;4985700;28;19937;-71
2023/06/18 05:59:11;;;;;;;;;;;16.60;87.50;;;;;;4985538;28;20020;-71
2023/06/18 06:01:37;;;;;;;;;;;16.70;87.10;;;;;;4986456;28;20017;-71
2023/06/18 06:04:04;;;;;;;;;;;16.70;86.40;;;;;;4983352;28;20685;-71
2023/06/18 06:06:31;;;;;;;;;;;16.80;86.60;;;;;;4985529;28;19934;-71
2023/06/18 06:08:58;;;;;;;;;;;16.80;86.20;;;;;;4986419;28;19934;-71
2023/06/18 06:11:25;;;;;;;;;;;16.90;87.50;;;;;;4974429;28;19993;-71
2023/06/18 06:13:52;;;;;;;;;;;17.10;87.30;;;;;;4985313;28;19940;-71
2023/06/18 06:16:19;;;;;;;;;;;17.30;86.30;;;;;;4985435;28;19957;-71
2023/06/18 06:18:46;;;;;;;;;;;17.60;86.00;;;;;;4986500;28;20016;-71
2023/06/18 06:21:13;;;;;;;;;;;17.80;84.40;;;;;;4984631;28;19934;-71
2023/06/18 06:23:40;;;;;;;;;;;18.00;82.80;;;;;;4966030;28;20442;-71
2023/06/18 06:26:06;;;;;;;;;;;18.20;82.70;;;;;;4966938;28;20633;-71
2023/06/18 06:28:33;;;;;;;;;;;18.40;80.00;;;;;;4976139;28;19933;-71
2023/06/18 06:31:00;;;;;;;;;;;18.50;80.40;;;;;;4983876;28;19965;-71
2023/06/18 06:33:27;;;;;;;;;;;18.50;80.00;;;;;;4972147;28;20092;-71
2023/06/18 06:35:53;;;;;;;;;;;18.40;79.30;;;;;;4983765;28;19942;-72
2023/06/18 06:38:20;;;;;;;;;;;18.40;79.80;;;;;;4984652;28;19968;-73
2023/06/18 06:40:47;;;;;;;;;;;18.50;80.70;;;;;;4967284;28;19929;-75
2023/06/18 06:43:14;;;;;;;;;;;18.60;80.00;;;;;;4984084;28;19940;-73
2023/06/18 06:45:41;;;;;;;;;;;18.70;79.90;;;;;;4974320;28;20039;-72
2023/06/18 06:48:08;;;;;;;;;;;18.90;78.80;;;;;;4972076;28;19934;-73
2023/06/18 06:50:34;;;;;;;;;;;19.20;80.30;;;;;;4983581;28;20030;-73
2023/06/18 06:53:01;;;;;;;;;;;19.60;77.40;;;;;;4986510;28;19968;-78
2023/06/18 06:55:28;;;;;;;;;;;19.70;75.70;;;;;;4976044;28;20015;-76
2023/06/18 06:57:56;;;;;;;;;;;19.70;74.50;;;;;;4976742;28;19961;-74
2023/06/18 07:00:22;;;;;;;;;;;19.90;75.00;;;;;;4986300;28;19972;-76
2023/06/18 07:02:50;;;;;;;;;;;20.10;74.60;;;;;;4984440;28;20347;-75
2023/06/18 07:05:17;;;;;;;;;;;20.40;73.90;;;;;;4985938;28;20618;-74
2023/06/18 07:07:43;;;;;;;;;;;20.70;73.20;;;;;;4984444;28;19934;-77
2023/06/18 07:10:10;;;;;;;;;;;21.10;72.40;;;;;;4971851;28;20041;-77
2023/06/18 07:12:37;;;;;;;;;;;21.50;72.50;;;;;;4965952;28;20023;-76
2023/06/18 07:15:04;;;;;;;;;;;21.90;68.20;;;;;;4982197;28;19936;-75
2023/06/18 07:17:31;;;;;;;;;;;22.10;68.10;;;;;;4983334;28;19930;-77
2023/06/18 07:19:58;;;;;;;;;;;22.10;67.20;;;;;;4965765;28;19956;-77
2023/06/18 07:22:27;;;;;;;;;;;22.40;64.90;;;;;;4967886;28;19930;-79
2023/06/18 07:24:56;;;;;;;;;;;22.70;65.30;;;;;;4964855;28;19960;-79
2023/06/18 07:27:24;;;;;;;;;;;23.00;63.60;;;;;;4946765;28;20284;-79
2023/06/18 07:29:51;;;;;;;;;;;23.40;61.80;;;;;;4957399;28;19933;-76
2023/06/18 07:32:18;;;;;;;;;;;23.50;60.70;;;;;;4966315;28;20619;-75
2023/06/18 07:34:44;;;;;;;;;;;23.70;61.20;;;;;;4964256;28;20025;-76
2023/06/18 07:37:11;;;;;;;;;;;24.00;60.10;;;;;;4965507;28;20411;-77
2023/06/18 07:39:38;;;;;;;;;;;24.10;59.40;;;;;;4948682;28;20748;-74
2023/06/18 07:42:05;;;;;;;;;;;23.90;58.60;;;;;;4970466;28;19934;-74
2023/06/18 07:44:32;;;;;;;;;;;24.00;59.30;;;;;;4966992;28;20049;-74
2023/06/18 07:47:01;;;;;;;;;;;24.00;58.70;;;;;;4953907;28;19942;-74
2023/06/18 07:49:28;;;;;;;;;;;24.20;57.30;;;;;;4964996;28;20012;-72
2023/06/18 07:51:55;;;;;;;;;;;24.70;57.20;;;;;;4966408;28;20024;-71
2023/06/18 07:54:21;;;;;;;;;;;24.90;57.30;;;;;;4968415;28;20079;-71
2023/06/18 07:56:48;;;;;;;;;;;24.40;57.00;;;;;;4964343;28;19956;-71
2023/06/18 07:59:15;;;;;;;;;;;24.20;56.90;;;;;;4968690;28;20573;-72
2023/06/18 08:01:41;;;;;;;;;;;24.00;58.60;;;;;;4964516;28;19977;-72
2023/06/18 08:04:08;;;;;;;;;;;24.30;58.10;;;;;;4956948;28;20883;-72
2023/06/18 08:06:35;;;;;;;;;;;24.60;58.40;;;;;;4967443;28;19949;-73
2023/06/18 08:09:02;;;;;;;;;;;24.90;57.40;;;;;;4973002;28;20394;-78
2023/06/18 08:11:29;;;;;;;;;;;25.00;56.90;;;;;;4974028;28;19941;-77
2023/06/18 08:13:55;;;;;;;;;;;25.30;56.50;;;;;;4952756;28;19936;-78
2023/06/18 08:16:23;;;;;;;;;;;25.50;56.30;;;;;;4975243;28;19940;-77
2023/06/18 08:18:52;;;;;;;;;;;25.80;55.40;;;;;;4987796;28;19933;-77
2023/06/18 08:21:19;;;;;;;;;;;25.90;55.70;;;;;;4996801;28;20020;-76
2023/06/18 08:23:46;;;;;;;;;;;26.30;54.00;;;;;;4990654;28;19941;-76
2023/06/18 08:26:14;;;;;;;;;;;26.70;52.00;;;;;;4990561;28;19933;-78
2023/06/18 08:28:40;;;;;;;;;;;26.90;50.90;;;;;;4992815;28;19933;-77
2023/06/18 08:31:07;;;;;;;;;;;27.30;51.00;;;;;;4976037;28;19969;-76
2023/06/18 08:33:34;;;;;;;;;;;27.20;49.60;;;;;;4994812;28;19937;-76
2023/06/18 08:36:01;;;;;;;;;;;26.70;50.90;;;;;;4990715;28;19961;-76
2023/06/18 08:38:28;;;;;;;;;;;26.90;51.00;;;;;;4980898;28;20016;-76
2023/06/18 08:40:55;;;;;;;;;;;26.90;50.50;;;;;;4992715;28;19930;-76
2023/06/18 08:43:26;;;;;;;;;;;26.80;50.70;;;;;;4983256;28;19936;-77
2023/06/18 08:45:53;;;;;;;;;;;26.70;50.40;;;;;;4994435;28;19930;-76
2023/06/18 08:48:24;;;;;;;;;;;26.80;51.40;;;;;;4994206;28;19952;-76
2023/06/18 08:51:04;;;;;;;;;;;27.30;49.90;;;;;;4978672;28;19930;-76
2023/06/18 08:53:35;;;;;;;;;;;27.40;50.50;;;;;;4982788;28;19965;-77
2023/06/18 08:56:02;;;;;;;;;;;27.70;49.80;;;;;;4989170;28;19934;-76
2023/06/18 08:58:30;;;;;;;;;;;27.60;49.70;;;;;;4993841;28;19933;-75
2023/06/18 09:00:57;;;;;;;;;;;27.50;48.40;;;;;;4994273;28;19937;-75
2023/06/18 09:03:24;;;;;;;;;;;27.70;49.80;;;;;;4993398;28;19984;-76
2023/06/18 09:05:51;;;;;;;;;;;27.90;49.20;;;;;;4990224;28;19930;-76
2023/06/18 09:08:19;;;;;;;;;;;27.80;50.10;;;;;;4991191;28;19941;-76
2023/06/18 09:10:46;;;;;;;;;;;28.30;49.20;;;;;;4992755;28;20020;-73
2023/06/18 09:13:13;;;;;;;;;;;28.50;49.30;;;;;;4991671;28;20713;-73
2023/06/18 09:15:40;;;;;;;;;;;28.70;47.90;;;;;;4972031;28;20025;-73
2023/06/18 09:18:06;;;;;;;;;;;28.70;49.00;;;;;;4990118;28;19965;-73
2023/06/18 09:20:34;;;;;;;;;;;28.80;47.90;;;;;;4990943;28;19934;-74
2023/06/18 09:23:06;;;;;;;;;;;28.90;47.00;;;;;;4988090;28;19936;-73
2023/06/18 09:25:33;;;;;;;;;;;28.70;47.80;;;;;;4990166;28;20484;-73
2023/06/18 09:28:01;;;;;;;;;;;28.90;48.00;;;;;;4984074;28;19933;-73
2023/06/18 09:30:28;;;;;;;;;;;29.40;48.10;;;;;;4976763;28;20067;-73
2023/06/18 09:35:30;;;;;;;;;;;30.00;44.90;;;;;;4940008;28;19934;-72
2023/06/18 09:38:06;;;;;;;;;;;29.90;44.50;;;;;;4938360;28;19935;-71
2023/06/18 09:40:33;;;;;;;;;;;29.10;43.00;;;;;;4939132;28;19990;-73
2023/06/18 09:43:00;;;;;;;;;;;28.80;45.80;;;;;;4939573;28;20052;-74
2023/06/18 09:45:27;;;;;;;;;;;28.60;47.00;;;;;;4943338;28;20032;-73
2023/06/18 09:47:54;;;;;;;;;;;29.00;47.40;;;;;;4948161;28;19938;-73
2023/06/18 09:50:25;;;;;;;;;;;28.80;46.80;;;;;;4952790;28;19981;-73
2023/06/18 09:52:54;;;;;;;;;;;29.00;45.40;;;;;;4947803;28;19941;-73
2023/06/18 09:55:26;;;;;;;;;;;29.10;44.40;;;;;;4947691;28;19974;-73
2023/06/18 09:57:52;;;;;;;;;;;28.60;44.20;;;;;;4946971;28;19934;-73
2023/06/18 10:00:20;;;;;;;;;;;28.10;46.80;;;;;;4945693;28;20284;-73
2023/06/18 10:02:46;;;;;;;;;;;28.20;45.10;;;;;;4948020;28;19930;-73
2023/06/18 10:05:13;;;;;;;;;;;28.30;44.80;;;;;;4941969;28;19940;-73
2023/06/18 10:07:40;;;;;;;;;;;28.60;45.90;;;;;;4937617;28;20964;-73
2023/06/18 10:10:16;;;;;;;;;;;28.80;43.20;;;;;;4923146;28;19997;-73
2023/06/18 10:12:43;;;;;;;;;;;28.60;45.20;;;;;;4938759;28;19942;-73
2023/06/18 10:15:11;;;;;;;;;;;28.90;43.80;;;;;;4943585;28;19931;-75
2023/06/18 10:17:43;;;;;;;;;;;29.10;45.30;;;;;;4935955;28;19996;-74
2023/06/18 10:20:12;;;;;;;;;;;29.40;44.90;;;;;;4934617;28;19930;-74
2023/06/18 10:22:45;;;;;;;;;;;29.50;46.20;;;;;;4940859;28;20025;-74
2023/06/18 10:25:12;;;;;;;;;;;29.70;43.70;;;;;;4950738;28;19930;-74
2023/06/18 10:27:39;;;;;;;;;;;29.60;43.90;;;;;;4951153;28;20686;-74
2023/06/18 10:30:07;;;;;;;;;;;29.40;44.20;;;;;;4931063;28;19934;-74
2023/06/18 10:32:35;;;;;;;;;;;29.50;43.10;;;;;;4948896;28;20012;-75
2023/06/18 10:35:06;;;;;;;;;;;29.50;43.80;;;;;;4932477;28;19930;-76
2023/06/18 10:37:35;;;;;;;;;;;29.30;44.00;;;;;;4935006;28;20326;-76
2023/06/18 10:40:02;;;;;;;;;;;29.40;45.20;;;;;;4947592;28;20394;-76
2023/06/18 10:42:33;;;;;;;;;;;29.50;44.50;;;;;;4953765;28;19930;-76
2023/06/18 10:45:10;;;;;;;;;;;29.40;42.70;;;;;;4934346;28;20248;-76
2023/06/18 10:47:38;;;;;;;;;;;29.50;41.80;;;;;;4949926;28;19930;-77
2023/06/18 10:50:05;;;;;;;;;;;29.80;43.30;;;;;;4933876;28;20013;-76
2023/06/18 10:52:33;;;;;;;;;;;30.00;41.70;;;;;;4935563;28;19983;-76
2023/06/18 10:55:12;;;;;;;;;;;29.70;41.60;;;;;;4939225;28;20399;-78
2023/06/18 10:57:46;;;;;;;;;;;29.70;40.90;;;;;;4949622;28;19930;-78
2023/06/18 11:00:21;;;;;;;;;;;29.80;40.90;;;;;;4950449;28;19937;-76
2023/06/18 11:02:51;;;;;;;;;;;29.90;40.30;;;;;;4950236;28;20059;-77
2023/06/18 11:05:36;;;;;;;;;;;30.00;41.20;;;;;;4955024;28;20467;-77
2023/06/18 11:08:10;;;;;;;;;;;29.80;39.60;;;;;;4937198;28;19926;-77
2023/06/18 11:10:38;;;;;;;;;;;29.20;38.80;;;;;;4934197;28;20466;-75
2023/06/18 11:13:06;;;;;;;;;;;28.80;42.20;;;;;;4932002;28;19935;-76
2023/06/18 11:15:36;;;;;;;;;;;28.80;43.30;;;;;;4944992;28;19930;-76
2023/06/18 11:18:03;;;;;;;;;;;29.00;44.80;;;;;;4939029;28;20633;-78
2023/06/18 11:20:31;;;;;;;;;;;29.20;40.90;;;;;;4942928;28;20372;-78
2023/06/18 11:23:02;;;;;;;;;;;29.10;43.40;;;;;;4934862;28;19934;-77
2023/06/18 11:25:29;;;;;;;;;;;29.00;41.90;;;;;;4943232;28;19965;-75
2023/06/18 11:28:01;;;;;;;;;;;28.90;42.40;;;;;;4953614;28;20379;-82
2023/06/18 11:30:31;;;;;;;;;;;28.90;42.50;;;;;;4957417;28;19931;-78
2023/06/18 11:32:59;;;;;;;;;;;28.90;41.60;;;;;;4941263;28;19939;-79
2023/06/18 11:35:27;;;;;;;;;;;29.10;42.90;;;;;;4932815;28;19990;-78
2023/06/18 11:37:54;;;;;;;;;;;29.60;41.60;;;;;;4949390;28;20021;-78
2023/06/18 11:40:21;;;;;;;;;;;29.80;41.50;;;;;;4956716;28;19949;-78
2023/06/18 11:42:49;;;;;;;;;;;30.20;41.30;;;;;;4938974;28;20538;-78
2023/06/18 11:45:16;;;;;;;;;;;30.20;40.50;;;;;;4942518;28;19977;-78
2023/06/18 11:47:44;;;;;;;;;;;30.40;40.50;;;;;;4954215;28;20009;-78
2023/06/18 11:50:11;;;;;;;;;;;30.60;40.00;;;;;;4937062;28;20053;-78
2023/06/18 11:52:39;;;;;;;;;;;30.90;39.50;;;;;;4957152;28;19965;-78
2023/06/18 11:55:06;;;;;;;;;;;31.10;39.80;;;;;;4954872;28;19990;-78
2023/06/18 11:57:33;;;;;;;;;;;31.20;38.00;;;;;;4954441;28;19966;-78
2023/06/18 12:00:00;;;;;;;;;;;31.00;37.40;;;;;;4959455;28;20396;-79
2023/06/18 12:02:27;;;;;;;;;;;30.60;37.60;;;;;;4933139;28;20025;-79
2023/06/18 12:05:02;;;;;;;;;;;30.40;37.90;;;;;;4954085;28;20437;-79
2023/06/18 12:07:30;;;;;;;;;;;30.00;37.80;;;;;;4948984;28;20388;-79
2023/06/18 12:09:58;;;;;;;;;;;30.00;38.40;;;;;;4948154;28;20001;-79
2023/06/18 12:15:53;;;;;;;;;;;30.20;37.60;;;;;;4951766;28;19965;-78
2023/06/18 12:18:26;;;;;;;;;;;30.40;36.60;;;;;;4950161;28;19931;-78
2023/06/18 12:20:53;;;;;;;;;;;30.00;36.90;;;;;;4952163;28;19993;-78
2023/06/18 12:23:19;;;;;;;;;;;30.00;37.60;;;;;;4951322;28;20054;-79
2023/06/18 12:25:46;;;;;;;;;;;29.70;36.50;;;;;;4952332;28;19931;-78
2023/06/18 12:28:13;;;;;;;;;;;29.10;38.90;;;;;;4948074;28;19931;-78
2023/06/18 12:30:40;;;;;;;;;;;29.20;39.40;;;;;;4937505;28;19930;-79
2023/06/18 12:33:10;;;;;;;;;;;29.70;39.10;;;;;;4951653;28;20110;-78
2023/06/18 12:35:40;;;;;;;;;;;29.40;38.30;;;;;;4944593;28;20728;-77
2023/06/18 12:38:10;;;;;;;;;;;29.70;39.20;;;;;;4936158;28;19945;-73
2023/06/18 12:40:46;;;;;;;;;;;29.80;38.60;;;;;;4937767;28;20021;-76
2023/06/18 12:43:15;;;;;;;;;;;30.20;37.70;;;;;;4939577;28;19942;-73
2023/06/18 12:45:44;;;;;;;;;;;30.30;37.20;;;;;;4939872;28;19974;-73
2023/06/18 12:48:15;;;;;;;;;;;30.40;37.90;;;;;;4924197;29;19962;-73
2023/06/18 12:50:42;;;;;;;;;;;30.60;38.00;;;;;;4923204;28;19931;-74
2023/06/18 12:53:21;;;;;;;;;;;30.50;36.80;;;;;;4922945;28;19978;-75
2023/06/18 12:55:56;;;;;;;;;;;30.30;37.40;;;;;;4941601;28;20244;-74
2023/06/18 12:58:27;;;;;;;;;;;30.00;38.20;;;;;;4945174;28;20040;-74
2023/06/18 13:00:58;;;;;;;;;;;29.80;38.40;;;;;;4927253;28;19930;-74
2023/06/18 13:03:26;;;;;;;;;;;29.70;37.50;;;;;;4947311;28;20636;-74
2023/06/18 13:05:55;;;;;;;;;;;29.70;38.80;;;;;;4946655;28;19938;-74
2023/06/18 13:08:22;;;;;;;;;;;30.00;39.60;;;;;;4947388;28;19930;-74
2023/06/18 13:10:51;;;;;;;;;;;30.10;39.20;;;;;;4930998;28;19981;-74
2023/06/18 13:13:18;;;;;;;;;;;30.40;39.50;;;;;;4935940;29;20373;-74
2023/06/18 13:15:46;;;;;;;;;;;30.60;37.70;;;;;;4943691;28;19939;-74
2023/06/18 13:18:13;;;;;;;;;;;30.60;37.50;;;;;;4946740;28;20018;-74
2023/06/18 13:20:41;;;;;;;;;;;30.40;36.80;;;;;;4930937;29;19941;-74
2023/06/18 13:23:09;;;;;;;;;;;30.50;37.50;;;;;;4946205;28;19931;-73
2023/06/18 13:25:36;;;;;;;;;;;30.50;37.60;;;;;;4947970;28;20474;-74
2023/06/18 13:28:03;;;;;;;;;;;30.80;37.40;;;;;;4946159;28;19953;-74
2023/06/18 13:30:31;;;;;;;;;;;30.90;37.10;;;;;;4945999;28;19934;-74
2023/06/18 13:32:58;;;;;;;;;;;30.80;38.00;;;;;;4945684;28;19941;-74
2023/06/18 13:35:26;;;;;;;;;;;30.90;36.90;;;;;;4926756;29;20216;-73
2023/06/18 13:37:53;;;;;;;;;;;30.80;35.90;;;;;;4943658;28;20013;-73
2023/06/18 13:40:20;;;;;;;;;;;30.40;37.60;;;;;;4947068;28;20009;-73
2023/06/18 13:42:47;;;;;;;;;;;30.30;38.40;;;;;;4945870;28;19931;-73
2023/06/18 13:45:14;;;;;;;;;;;30.10;39.00;;;;;;4948573;28;20021;-73
2023/06/18 13:47:41;;;;;;;;;;;30.30;37.80;;;;;;4946807;28;19931;-73
2023/06/18 13:50:09;;;;;;;;;;;29.90;38.70;;;;;;4954097;28;20438;-73
2023/06/18 13:52:36;;;;;;;;;;;29.70;39.70;;;;;;4929424;29;19935;-74
2023/06/18 13:55:03;;;;;;;;;;;29.90;39.80;;;;;;4947706;28;19949;-73
2023/06/18 13:57:29;;;;;;;;;;;30.00;38.70;;;;;;4944818;28;20464;-73
2023/06/18 13:59:56;;;;;;;;;;;30.10;38.20;;;;;;4945145;28;19935;-74
2023/06/18 14:02:23;;;;;;;;;;;30.10;38.20;;;;;;4946378;28;19982;-74
2023/06/18 14:04:49;;;;;;;;;;;29.70;38.80;;;;;;4946039;28;19937;-74
2023/06/18 14:07:17;;;;;;;;;;;29.60;38.10;;;;;;4944887;28;20413;-73
2023/06/18 14:09:43;;;;;;;;;;;29.70;38.50;;;;;;4929310;29;20033;-73
2023/06/18 14:12:10;;;;;;;;;;;29.80;38.60;;;;;;4942775;28;19931;-73
2023/06/18 14:14:37;;;;;;;;;;;29.90;39.50;;;;;;4937675;28;20761;-73
2023/06/18 14:17:09;;;;;;;;;;;30.00;38.90;;;;;;4945189;28;20034;-73
2023/06/18 14:19:37;;;;;;;;;;;29.90;39.30;;;;;;4928382;29;20422;-73
2023/06/18 14:22:05;;;;;;;;;;;30.10;39.80;;;;;;4934348;28;20674;-74
2023/06/18 14:24:31;;;;;;;;;;;30.20;39.30;;;;;;4946639;28;19936;-74
2023/06/18 14:26:58;;;;;;;;;;;30.40;36.90;;;;;;4928779;28;19926;-74